Hobart Ellerslie Road, Tasmania

5:01 AM AEST on August 28, 2016 (GMT +1000)
inland, home. | | Change Station

Elev 85 ft 42.88 °S, 147.32 °E | Updated 9 seconds ago

Partly Cloudy
Partly Cloudy
39.7 °F
Feels Like 37 °F
N
3.8
Wind Variable Wind from SW
Gusts 4.5 mph

Today
High -- | Low -- °F
--% Chance of Precip.
Yesterday
High -- | Low -- °F
Precip. -- in
Pressure 29.86 in
Visibility 6.2 miles
Clouds Few 4000 ft
Windchill 37 °F
Dew Point 34 °F
Humidity 80%
Rainfall 0.05 in
Snow Depth Not available.
6:43 AM 5:40 PM
Waning Crescent, 22% visible
METAR YMHB 271830Z 21009KT 9999 FEW040 07/02 Q1011
Pressure 29.86 in
Visibility 6.2 miles
Clouds Few 4000 ft
Windchill 37 °F
Dew Point 34 °F
Humidity 80%
Rainfall 0.05 in
Snow Depth Not available.
6:43 AM 5:40 PM
Waning Crescent, 22% visible
METAR YMHB 271830Z 21009KT 9999 FEW040 07/02 Q1011

10-Day Weather Forecast

Almanac

Astronomy

Aug. 28, 2016 Rise Set
Actual Time
Civil Twilight
Nautical Twilight
Astronomical Twilight
Moon
Length of Visible Light
Length of Day
Tomorrow will be .
, % of the Moon is Illuminated

Today's Extremes

Country Highs Country Lows

Community

WunderPhotos

Upload Photos

1,935,399 photos uploaded!

WunderBlog® & News

Nearby

Air Quality

  Air Quality AQ Index Pollutant
Not available.

Snow Depth

Station Depth Elevation

Earthquake Activity

City Distance Mag. Time & Date
Minimum magnitude displayed is 2.5.

Coastal Water Temperatures

Place Temperature

Stations

Nearby Weather Stations

Station Location Temp. Windchill Dew Point Humidity Wind Precip. Elev Updated Type